Time;durP1;ratioP1;P1;durP2;ratioP2;P2;SDS_P1;SDS_P2;PMS_P1;PMS_P2;Temp;Humidity;BMP_temperature;BMP_pressure;BME280_temperature;BME280_humidity;BME280_pressure;Samples;Min_cycle;Max_cycle;Signal;HPM_P1;HPM_P2
2021/05/27 00:00:07;;;;;;;8.03;6.83;;;13.20;99.90;;;;;;4994785;28;20540;-89
2021/05/27 00:02:33;;;;;;;7.33;6.30;;;13.20;99.90;;;;;;4994889;28;20457;-83
2021/05/27 00:04:59;;;;;;;10.07;6.97;;;13.10;99.90;;;;;;4996422;28;20823;-88
2021/05/27 00:07:25;;;;;;;9.63;6.30;;;13.10;99.90;;;;;;4980406;28;20433;-83
2021/05/27 00:09:50;;;;;;;9.47;6.73;;;13.00;99.90;;;;;;4994803;28;20202;-84
2021/05/27 00:12:16;;;;;;;8.10;6.10;;;12.90;99.90;;;;;;4997044;28;20257;-84
2021/05/27 00:14:42;;;;;;;8.60;5.93;;;12.80;99.90;;;;;;4994826;28;20180;-89
2021/05/27 00:17:07;;;;;;;10.00;5.67;;;12.60;99.90;;;;;;4994577;28;20208;-89
2021/05/27 00:19:33;;;;;;;8.30;5.50;;;12.50;99.90;;;;;;4994460;28;20212;-84
2021/05/27 00:21:59;;;;;;;8.10;5.50;;;12.50;99.90;;;;;;4980278;28;20311;-84
2021/05/27 00:24:25;;;;;;;7.87;5.97;;;12.70;99.90;;;;;;4994681;28;20176;-88
2021/05/27 00:26:50;;;;;;;9.67;5.93;;;12.50;99.90;;;;;;4976986;28;20560;-83
2021/05/27 00:29:16;;;;;;;7.23;5.30;;;12.20;99.90;;;;;;4993309;28;20175;-87
2021/05/27 00:31:41;;;;;;;7.37;5.10;;;12.00;99.90;;;;;;4993057;28;20676;-83
2021/05/27 00:34:07;;;;;;;7.13;5.20;;;12.00;99.90;;;;;;4994283;28;20168;-88
2021/05/27 00:36:33;;;;;;;7.47;6.20;;;12.20;99.90;;;;;;4994210;28;20200;-83
2021/05/27 00:38:58;;;;;;;6.47;4.97;;;12.20;99.90;;;;;;4994942;28;20180;-83
2021/05/27 00:41:24;;;;;;;8.27;5.13;;;12.10;99.90;;;;;;4978652;28;20600;-83
2021/05/27 00:43:50;;;;;;;5.77;5.17;;;12.20;99.90;;;;;;4978501;28;20191;-85
2021/05/27 00:46:15;;;;;;;6.77;4.80;;;12.10;99.90;;;;;;5002072;28;20533;-84
2021/05/27 00:48:57;;;;;;;5.40;4.87;;;12.10;99.90;;;;;;4998420;28;20180;-89
2021/05/27 00:51:23;;;;;;;5.72;4.10;;;12.10;99.90;;;;;;4992857;28;20326;-84
2021/05/27 00:53:49;;;;;;;4.30;3.60;;;12.20;99.90;;;;;;4976698;28;20211;-90
2021/05/27 00:56:15;;;;;;;7.87;4.30;;;12.10;99.90;;;;;;4975601;28;20486;-84
2021/05/27 00:58:43;;;;;;;5.03;3.87;;;12.00;99.90;;;;;;4978253;28;20261;-85
2021/05/27 01:01:09;;;;;;;4.30;3.40;;;12.00;99.90;;;;;;4995184;28;20223;-83
2021/05/27 01:03:34;;;;;;;4.77;3.73;;;12.00;99.90;;;;;;4976861;28;20429;-88
2021/05/27 01:06:03;;;;;;;4.70;3.43;;;11.90;99.90;;;;;;4993825;28;20938;-88
2021/05/27 01:08:30;;;;;;;3.93;3.50;;;11.80;99.90;;;;;;4994143;28;20172;-89
2021/05/27 01:10:56;;;;;;;4.57;3.27;;;11.80;99.90;;;;;;4992886;28;20436;-84
2021/05/27 01:13:24;;;;;;;4.63;3.73;;;11.90;99.90;;;;;;4996292;28;20513;-83
2021/05/27 01:15:50;;;;;;;5.93;3.80;;;11.90;99.90;;;;;;4992601;28;20843;-89
2021/05/27 01:18:17;;;;;;;6.37;4.23;;;11.70;99.90;;;;;;4993971;28;20479;-83
2021/05/27 01:20:49;;;;;;;4.97;3.53;;;11.80;99.90;;;;;;4993408;28;20277;-83
2021/05/27 01:23:15;;;;;;;4.03;3.63;;;11.90;99.90;;;;;;4976372;28;20456;-88
2021/05/27 01:25:50;;;;;;;5.03;3.30;;;12.00;99.90;;;;;;4993658;28;20918;-89
2021/05/27 01:28:16;;;;;;;3.80;3.33;;;12.00;99.90;;;;;;4994002;28;20932;-88
2021/05/27 01:30:43;;;;;;;3.93;3.50;;;12.00;99.90;;;;;;4993607;28;20199;-89
2021/05/27 01:33:10;;;;;;;5.27;3.90;;;11.80;99.90;;;;;;4976208;28;20759;-83
2021/05/27 01:35:36;;;;;;;4.22;3.50;;;11.60;99.90;;;;;;4993638;28;20429;-84
2021/05/27 01:38:14;;;;;;;3.63;3.13;;;11.40;99.90;;;;;;4980969;28;20191;-83
2021/05/27 01:40:40;;;;;;;6.13;4.10;;;11.30;99.90;;;;;;5002218;28;20522;-85
2021/05/27 01:43:06;;;;;;;4.82;3.60;;;11.20;99.90;;;;;;4997561;28;20187;-83
2021/05/27 01:45:32;;;;;;;6.03;3.83;;;11.30;99.90;;;;;;4976015;28;20263;-88
2021/05/27 01:47:57;;;;;;;7.23;4.43;;;11.40;99.90;;;;;;4996780;28;20414;-88
2021/05/27 01:50:24;;;;;;;5.03;3.97;;;11.30;99.90;;;;;;4994993;28;20498;-83
2021/05/27 01:52:50;;;;;;;7.45;4.57;;;11.20;99.90;;;;;;4976093;28;20247;-83
2021/05/27 01:55:17;;;;;;;4.35;3.95;;;11.30;99.90;;;;;;4992970;28;20188;-83
2021/05/27 01:57:42;;;;;;;4.80;3.78;;;11.50;99.90;;;;;;4975368;28;20237;-83
2021/05/27 02:00:08;;;;;;;9.67;4.37;;;11.50;99.90;;;;;;4976132;28;20223;-88
2021/05/27 02:02:34;;;;;;;5.82;4.38;;;11.40;99.90;;;;;;4993206;28;20533;-84
2021/05/27 02:05:00;;;;;;;7.53;4.97;;;11.50;99.90;;;;;;4993130;28;20168;-90
2021/05/27 02:07:27;;;;;;;5.30;4.03;;;11.50;99.90;;;;;;4992980;28;20188;-85
2021/05/27 02:09:53;;;;;;;10.80;5.50;;;11.40;99.90;;;;;;4992834;28;20172;-85
2021/05/27 02:12:19;;;;;;;5.10;4.20;;;11.30;99.90;;;;;;4975153;28;20188;-90
2021/05/27 02:14:45;;;;;;;5.90;4.93;;;11.30;99.90;;;;;;4975879;28;20308;-90
2021/05/27 02:17:11;;;;;;;5.40;3.57;;;11.20;99.90;;;;;;4994439;28;20199;-90
2021/05/27 02:19:36;;;;;;;4.60;4.10;;;11.20;99.90;;;;;;4991627;28;20211;-89
2021/05/27 02:22:02;;;;;;;5.73;4.13;;;11.00;99.90;;;;;;4992776;28;20236;-84
2021/05/27 02:24:28;;;;;;;5.53;4.17;;;11.00;99.90;;;;;;4975402;28;20190;-90
2021/05/27 02:26:53;;;;;;;6.07;4.20;;;11.10;99.90;;;;;;4992708;28;20808;-90
2021/05/27 02:29:19;;;;;;;7.00;4.50;;;11.10;99.90;;;;;;4992858;28;20207;-90
2021/05/27 02:31:46;;;;;;;6.27;5.07;;;11.00;99.90;;;;;;4992580;28;20191;-83
2021/05/27 02:34:12;;;;;;;5.10;4.05;;;10.90;99.90;;;;;;4992638;28;20176;-84
2021/05/27 02:36:38;;;;;;;6.40;4.63;;;10.90;99.90;;;;;;4995589;28;20198;-89
2021/05/27 02:39:05;;;;;;;11.70;4.37;;;11.00;99.90;;;;;;4978811;28;20637;-88
2021/05/27 02:41:31;;;;;;;5.68;3.90;;;11.00;99.90;;;;;;4996009;28;20664;-90
2021/05/27 02:43:56;;;;;;;7.97;4.20;;;11.00;99.90;;;;;;4975619;28;20262;-85
2021/05/27 02:46:22;;;;;;;8.37;3.97;;;10.90;99.90;;;;;;4974890;28;20196;-90
2021/05/27 02:48:48;;;;;;;6.70;3.97;;;10.80;99.90;;;;;;4975087;28;20593;-84
2021/05/27 02:51:14;;;;;;;3.33;3.00;;;10.70;99.90;;;;;;4992884;28;20540;-84
2021/05/27 02:53:40;;;;;;;6.50;4.20;;;10.60;99.90;;;;;;4992830;28;20262;-85
2021/05/27 02:56:05;;;;;;;6.17;3.67;;;10.60;99.90;;;;;;4992302;28;20196;-88
2021/05/27 02:58:31;;;;;;;6.43;3.50;;;10.70;99.90;;;;;;4993392;28;20184;-85
2021/05/27 03:00:57;;;;;;;6.03;3.40;;;10.60;99.90;;;;;;4983780;28;20631;-89
2021/05/27 03:03:23;;;;;;;4.80;3.87;;;10.70;99.90;;;;;;4991227;28;20198;-89
2021/05/27 03:05:49;;;;;;;5.77;3.60;;;10.60;99.90;;;;;;4974803;28;20449;-84
2021/05/27 03:08:15;;;;;;;5.68;3.92;;;10.60;99.90;;;;;;4990760;28;20184;-90
2021/05/27 03:10:42;;;;;;;4.32;3.25;;;10.60;99.90;;;;;;4974612;28;20257;-90
2021/05/27 03:13:09;;;;;;;6.28;3.60;;;10.70;99.90;;;;;;4974987;28;20191;-85
2021/05/27 03:15:35;;;;;;;4.00;3.60;;;10.70;99.90;;;;;;4991772;28;20192;-89
2021/05/27 03:18:06;;;;;;;4.68;3.85;;;10.70;99.90;;;;;;4974737;28;20232;-90
2021/05/27 03:20:32;;;;;;;8.13;4.10;;;10.50;99.90;;;;;;4994562;28;20216;-85
2021/05/27 03:22:58;;;;;;;3.30;2.90;;;10.40;99.90;;;;;;4977929;28;20194;-85
2021/05/27 03:25:24;;;;;;;6.32;4.30;;;10.40;99.90;;;;;;4978100;28;20221;-87
2021/05/27 03:27:50;;;;;;;4.17;3.80;;;10.40;99.90;;;;;;4978310;28;20183;-84
2021/05/27 03:30:16;;;;;;;3.47;3.17;;;10.50;99.90;;;;;;4980203;28;20433;-88
2021/05/27 03:32:42;;;;;;;5.80;3.60;;;10.50;99.90;;;;;;4996545;28;20188;-84
2021/05/27 03:35:09;;;;;;;7.90;3.67;;;10.60;99.90;;;;;;4984967;28;20277;-89
2021/05/27 03:37:34;;;;;;;6.32;4.25;;;10.70;99.90;;;;;;5003071;28;20526;-85
2021/05/27 03:40:13;;;;;;;5.83;4.00;;;10.60;99.90;;;;;;4983519;28;20218;-84
2021/05/27 03:42:47;;;;;;;4.18;3.05;;;10.60;99.90;;;;;;4984561;28;20187;-85
2021/05/27 03:45:23;;;;;;;4.07;3.13;;;10.90;99.90;;;;;;4995160;28;20201;-89
2021/05/27 03:47:50;;;;;;;4.07;3.70;;;10.90;99.90;;;;;;4977456;28;20192;-84
2021/05/27 03:50:17;;;;;;;3.95;3.35;;;10.90;99.90;;;;;;4977801;28;20231;-90
2021/05/27 03:52:43;;;;;;;3.75;3.40;;;10.90;99.90;;;;;;4977847;28;20243;-84
2021/05/27 03:55:11;;;;;;;4.03;3.17;;;11.00;99.90;;;;;;4995090;28;20659;-90
2021/05/27 03:57:37;;;;;;;3.80;3.45;;;11.10;99.90;;;;;;4993847;28;20430;-89
2021/05/27 04:02:58;;;;;;;8.65;4.22;;;11.30;99.90;;;;;;4995318;28;20187;-90
2021/05/27 04:08:08;;;;;;;5.25;3.65;;;11.50;99.90;;;;;;5000928;28;20211;-90
2021/05/27 04:10:35;;;;;;;6.03;4.37;;;11.50;99.90;;;;;;4984249;28;20200;-89
2021/05/27 04:13:01;;;;;;;5.90;4.22;;;11.50;99.90;;;;;;5001474;28;20187;-88
2021/05/27 04:15:29;;;;;;;6.70;4.40;;;11.60;99.90;;;;;;5000311;28;20200;-83
2021/05/27 04:17:57;;;;;;;5.60;4.35;;;11.70;99.90;;;;;;4996602;28;20894;-87
2021/05/27 04:20:26;;;;;;;4.55;3.88;;;11.80;99.90;;;;;;4980231;28;20269;-85
2021/05/27 04:22:52;;;;;;;5.22;3.90;;;11.90;99.90;;;;;;4977219;28;20188;-85
2021/05/27 04:25:21;;;;;;;5.55;4.47;;;11.90;99.90;;;;;;4976253;28;20196;-89
2021/05/27 04:27:47;;;;;;;5.35;4.63;;;12.00;99.90;;;;;;4975661;28;20212;-90
2021/05/27 04:30:15;;;;;;;5.50;5.00;;;12.10;99.90;;;;;;4994237;28;20535;-90
2021/05/27 04:32:55;;;;;;;6.88;4.60;;;12.20;99.90;;;;;;4993499;28;20433;-90
2021/05/27 04:35:23;;;;;;;5.47;4.35;;;12.40;99.90;;;;;;4994331;28;20219;-84
2021/05/27 04:37:49;;;;;;;5.78;4.20;;;12.50;99.90;;;;;;4979516;28;20188;-90
2021/05/27 04:40:16;;;;;;;10.88;4.60;;;12.70;99.90;;;;;;4993929;28;20223;-91
2021/05/27 04:42:41;;;;;;;5.53;4.80;;;12.70;99.90;;;;;;4973650;28;20185;-85
2021/05/27 04:45:08;;;;;;;12.33;4.70;;;12.90;99.90;;;;;;4957527;28;20227;-91
2021/05/27 04:47:33;;;;;;;5.55;4.60;;;13.10;99.90;;;;;;4957512;28;20185;-92
2021/05/27 04:49:59;;;;;;;7.50;4.00;;;13.20;99.90;;;;;;4957508;28;20267;-84
2021/05/27 04:52:25;;;;;;;4.60;3.73;;;13.40;99.90;;;;;;4974117;28;20259;-84
2021/05/27 04:54:50;;;;;;;9.57;4.40;;;13.40;99.90;;;;;;4974795;28;20411;-85
2021/05/27 04:57:16;;;;;;;7.53;4.30;;;13.50;99.90;;;;;;4975613;28;20216;-85
2021/05/27 04:59:42;;;;;;;5.17;4.30;;;13.70;99.90;;;;;;4957740;28;20208;-90
2021/05/27 05:02:07;;;;;;;5.60;4.43;;;13.80;99.90;;;;;;4979300;28;20204;-91
2021/05/27 05:04:33;;;;;;;4.50;3.53;;;13.90;99.90;;;;;;4978918;28;20187;-88
2021/05/27 05:06:59;;;;;;;4.17;3.77;;;14.10;99.90;;;;;;4993091;28;20733;-90
2021/05/27 05:09:25;;;;;;;4.67;4.13;;;14.30;99.90;;;;;;4976427;28;20180;-85
2021/05/27 05:11:50;;;;;;;5.53;3.33;;;14.40;99.90;;;;;;4993552;28;20684;-91
2021/05/27 05:14:16;;;;;;;4.40;4.00;;;14.60;99.90;;;;;;4983766;28;20208;-88
2021/05/27 05:16:42;;;;;;;6.90;4.30;;;14.70;99.90;;;;;;4973635;28;20242;-85
2021/05/27 05:19:07;;;;;;;6.03;3.90;;;14.80;99.90;;;;;;5033876;28;20325;-88
2021/05/27 05:21:33;;;;;;;3.97;3.47;;;14.90;99.90;;;;;;5010131;28;20256;-85
2021/05/27 05:23:59;;;;;;;5.93;4.33;;;15.00;99.90;;;;;;5051405;28;20217;-93
2021/05/27 05:26:25;;;;;;;8.97;4.47;;;15.20;99.90;;;;;;4986305;28;20425;-87
2021/05/27 05:28:50;;;;;;;4.67;3.80;;;15.40;99.90;;;;;;4976839;28;20195;-84
2021/05/27 05:31:16;;;;;;;6.37;4.60;;;15.50;99.90;;;;;;5002381;28;20207;-87
2021/05/27 05:33:42;;;;;;;6.90;3.87;;;15.80;99.90;;;;;;5003686;28;20152;-85
2021/05/27 05:36:08;;;;;;;4.33;3.90;;;15.90;99.90;;;;;;4975960;28;20456;-92
2021/05/27 05:38:34;;;;;;;7.00;3.70;;;16.00;99.90;;;;;;4993457;28;20736;-91
2021/05/27 05:40:59;;;;;;;5.70;3.20;;;16.20;99.90;;;;;;4966941;28;20832;-93
2021/05/27 05:43:25;;;;;;;8.67;4.17;;;16.30;99.90;;;;;;4981754;28;20173;-84
2021/05/27 05:45:51;;;;;;;4.80;3.30;;;16.40;99.90;;;;;;4979078;28;20200;-85
2021/05/27 05:48:17;;;;;;;4.13;3.30;;;16.50;99.90;;;;;;4976362;28;20675;-91
2021/05/27 05:50:47;;;;;;;3.90;3.10;;;16.70;99.90;;;;;;4990884;28;20485;-85
2021/05/27 05:53:17;;;;;;;4.50;2.97;;;16.80;99.90;;;;;;4972468;28;20240;-93
2021/05/27 05:55:43;;;;;;;2.97;2.63;;;17.10;99.90;;;;;;4963154;28;20448;-96
2021/05/27 05:58:09;;;;;;;3.20;2.90;;;17.20;99.90;;;;;;5004365;28;20431;-84
2021/05/27 06:00:36;;;;;;;2.97;2.50;;;17.30;99.90;;;;;;4994365;28;20824;-85
2021/05/27 06:03:03;;;;;;;3.17;2.50;;;17.50;99.90;;;;;;4968132;28;20450;-91
2021/05/27 06:05:29;;;;;;;5.13;3.00;;;17.50;99.90;;;;;;5000819;28;20459;-91
2021/05/27 06:07:56;;;;;;;4.00;3.00;;;17.70;99.90;;;;;;5011166;28;20444;-86
2021/05/27 06:10:23;;;;;;;3.10;2.80;;;17.70;99.90;;;;;;4960953;28;20446;-84
2021/05/27 06:12:51;;;;;;;3.43;2.50;;;17.80;99.90;;;;;;4973868;28;20429;-92
2021/05/27 06:15:21;;;;;;;3.53;2.97;;;17.80;99.90;;;;;;4991641;28;20526;-90
2021/05/27 06:17:47;;;;;;;4.00;3.27;;;18.00;99.90;;;;;;5009543;28;20453;-92
2021/05/27 06:20:14;;;;;;;3.17;2.87;;;18.20;99.90;;;;;;4994874;28;20490;-84
2021/05/27 06:22:40;;;;;;;2.57;2.30;;;18.40;99.90;;;;;;5025287;28;20472;-85
2021/05/27 06:25:07;;;;;;;3.47;2.70;;;18.60;99.90;;;;;;4981098;28;20462;-84
2021/05/27 06:27:32;;;;;;;3.23;2.40;;;19.20;99.90;;;;;;4982725;28;20430;-85
2021/05/27 06:29:58;;;;;;;2.60;2.40;;;19.80;99.90;;;;;;4968196;28;20424;-92
2021/05/27 06:32:24;;;;;;;4.70;2.50;;;19.60;99.90;;;;;;4973040;28;20195;-85
2021/05/27 06:34:52;;;;;;;4.50;2.40;;;19.70;99.90;;;;;;4968115;28;20181;-91
2021/05/27 06:37:18;;;;;;;4.90;2.93;;;19.90;99.90;;;;;;4970941;28;20240;-90
2021/05/27 06:39:44;;;;;;;2.70;2.50;;;19.70;99.90;;;;;;4970141;28;20454;-90
2021/05/27 06:42:10;;;;;;;2.80;2.20;;;20.30;99.90;;;;;;4970636;28;20458;-91
2021/05/27 06:44:36;;;;;;;2.10;1.90;;;20.40;99.90;;;;;;5024057;28;20418;-92
2021/05/27 06:47:02;;;;;;;2.20;2.00;;;20.90;99.90;;;;;;4985627;28;20451;-85
2021/05/27 06:49:28;;;;;;;2.27;1.70;;;21.20;99.90;;;;;;5074403;28;20438;-92
2021/05/27 06:51:56;;;;;;;2.10;1.73;;;21.40;99.90;;;;;;5079823;28;20475;-90
2021/05/27 06:54:25;;;;;;;2.53;1.40;;;21.10;99.90;;;;;;5025248;28;20432;-92
2021/05/27 06:56:56;;;;;;;1.90;1.70;;;21.10;99.90;;;;;;4970908;28;21010;-92
2021/05/27 06:59:22;;;;;;;1.53;1.20;;;20.80;99.90;;;;;;4969134;28;20436;-90
2021/05/27 07:01:49;;;;;;;1.50;1.30;;;21.00;99.90;;;;;;5025677;28;20474;-91
2021/05/27 07:04:14;;;;;;;1.90;1.47;;;21.50;99.90;;;;;;5008774;28;20269;-85
2021/05/27 07:06:40;;;;;;;0.93;0.93;;;21.80;99.90;;;;;;4997251;28;20594;-85
2021/05/27 07:09:06;;;;;;;2.00;1.17;;;21.90;99.90;;;;;;5001685;28;20183;-85
2021/05/27 07:11:35;;;;;;;1.53;1.10;;;22.00;99.90;;;;;;4979195;28;20669;-94
2021/05/27 07:14:00;;;;;;;1.87;0.93;;;21.90;99.90;;;;;;4985468;28;20452;-91
2021/05/27 07:16:29;;;;;;;11.90;3.00;;;21.90;99.90;;;;;;4974264;28;20456;-84
2021/05/27 07:18:55;;;;;;;1.37;1.27;;;22.00;99.90;;;;;;4961431;28;20187;-85
2021/05/27 07:21:21;;;;;;;1.47;0.93;;;21.90;99.90;;;;;;4989435;28;20559;-92
2021/05/27 07:23:47;;;;;;;2.20;1.07;;;22.00;99.90;;;;;;5015654;28;20191;-90
2021/05/27 07:26:13;;;;;;;2.50;1.00;;;22.20;99.90;;;;;;5045612;28;20210;-85
2021/05/27 07:28:39;;;;;;;0.80;0.80;;;22.10;99.90;;;;;;5004213;28;20944;-85
2021/05/27 07:31:06;;;;;;;1.53;0.90;;;22.20;99.90;;;;;;5037474;28;20677;-91
2021/05/27 07:33:32;;;;;;;1.23;0.93;;;22.50;99.90;;;;;;5074098;28;20206;-85
2021/05/27 07:35:57;;;;;;;2.33;1.30;;;22.50;99.90;;;;;;5074688;28;20429;-92
2021/05/27 07:38:23;;;;;;;0.90;0.87;;;22.70;99.90;;;;;;5013172;28;20184;-85
2021/05/27 07:40:49;;;;;;;1.43;0.90;;;22.60;99.90;;;;;;4972641;28;20223;-84
2021/05/27 07:43:15;;;;;;;1.60;0.90;;;22.70;99.90;;;;;;5023260;28;20554;-91
2021/05/27 07:45:41;;;;;;;2.10;1.43;;;22.70;99.60;;;;;;5080489;28;20200;-90
2021/05/27 07:48:07;;;;;;;1.57;1.47;;;22.70;99.90;;;;;;5023596;28;20437;-84
2021/05/27 07:50:33;;;;;;;1.40;1.27;;;22.90;99.90;;;;;;4998060;28;21055;-90
2021/05/27 07:52:59;;;;;;;3.53;1.07;;;22.80;99.90;;;;;;4946238;28;20552;-84
2021/05/27 07:55:26;;;;;;;4.00;1.17;;;22.80;99.90;;;;;;4956990;28;20529;-86
2021/05/27 07:57:53;;;;;;;1.37;1.00;;;22.80;98.20;;;;;;4981224;28;20449;-89
2021/05/27 08:00:20;;;;;;;1.00;0.80;;;22.80;99.90;;;;;;4971767;28;20523;-92
2021/05/27 08:02:48;;;;;;;0.73;0.73;;;23.10;99.90;;;;;;4968227;28;20445;-84
2021/05/27 08:05:14;;;;;;;1.33;1.03;;;23.00;99.90;;;;;;4954511;28;20434;-91
2021/05/27 08:07:41;;;;;;;2.60;1.23;;;23.00;99.90;;;;;;4990390;28;20449;-93
2021/05/27 08:10:07;;;;;;;0.90;0.70;;;23.00;99.90;;;;;;5016193;28;20816;-85
2021/05/27 08:12:33;;;;;;;0.60;0.60;;;23.00;99.90;;;;;;4947627;28;20838;-83
2021/05/27 08:14:59;;;;;;;2.53;1.10;;;22.60;95.70;;;;;;4989453;28;20430;-94
2021/05/27 08:17:26;;;;;;;1.43;0.80;;;22.70;98.80;;;;;;5011329;28;20276;-90
2021/05/27 08:19:52;;;;;;;0.80;0.70;;;23.10;98.60;;;;;;5013234;28;20472;-86
2021/05/27 08:22:17;;;;;;;1.43;0.83;;;23.10;99.40;;;;;;4986865;28;20469;-85
2021/05/27 08:24:47;;;;;;;0.93;0.80;;;23.10;99.80;;;;;;5015323;28;20462;-85
2021/05/27 08:27:12;;;;;;;1.40;0.90;;;23.00;96.70;;;;;;4954568;28;20212;-85
2021/05/27 08:29:38;;;;;;;2.07;1.10;;;23.10;93.40;;;;;;4971119;28;20422;-91
2021/05/27 08:32:07;;;;;;;1.00;0.67;;;22.70;93.30;;;;;;4975231;28;20205;-89
2021/05/27 08:34:33;;;;;;;3.20;1.10;;;22.90;95.10;;;;;;4962352;28;20192;-85
2021/05/27 08:37:00;;;;;;;1.07;0.90;;;23.40;96.50;;;;;;5038909;28;20873;-91
2021/05/27 08:39:26;;;;;;;2.60;1.00;;;23.40;93.30;;;;;;5020913;28;20453;-92
2021/05/27 08:41:52;;;;;;;1.27;0.90;;;23.20;94.30;;;;;;4980960;28;20844;-90
2021/05/27 08:44:18;;;;;;;0.87;0.87;;;23.30;94.20;;;;;;4985519;28;20442;-86
2021/05/27 08:46:47;;;;;;;3.40;1.10;;;23.90;92.00;;;;;;4971211;28;20213;-92
2021/05/27 08:49:13;;;;;;;2.30;1.50;;;24.30;95.40;;;;;;4960426;28;20802;-91
2021/05/27 08:51:39;;;;;;;1.63;1.10;;;24.50;94.80;;;;;;5014856;28;20814;-84
2021/05/27 08:54:07;;;;;;;1.03;0.90;;;24.60;95.10;;;;;;4991124;28;20485;-89
2021/05/27 08:56:33;;;;;;;1.27;0.97;;;24.60;93.40;;;;;;4976254;28;20462;-84
2021/05/27 08:59:02;;;;;;;1.20;1.07;;;24.50;94.40;;;;;;4985078;28;20447;-92
2021/05/27 09:01:27;;;;;;;1.70;1.23;;;24.70;91.80;;;;;;4998282;28;20486;-82
2021/05/27 09:03:54;;;;;;;1.90;1.03;;;24.70;95.00;;;;;;4981412;28;20435;-84
2021/05/27 09:06:21;;;;;;;2.40;0.77;;;24.50;95.30;;;;;;4971407;28;20215;-92
2021/05/27 09:08:47;;;;;;;3.53;1.17;;;24.40;93.70;;;;;;5002378;28;20858;-93
2021/05/27 09:11:15;;;;;;;0.90;0.90;;;24.50;94.70;;;;;;4962495;28;20452;-92
2021/05/27 09:13:57;;;;;;;0.87;0.70;;;24.40;94.50;;;;;;4971191;28;20188;-90
2021/05/27 09:16:23;;;;;;;0.90;0.83;;;24.40;95.20;;;;;;4998973;28;20429;-84
2021/05/27 09:18:49;;;;;;;1.87;1.00;;;24.40;95.10;;;;;;4962225;28;20473;-84
2021/05/27 09:21:16;;;;;;;3.90;0.90;;;24.40;92.50;;;;;;4974300;28;20486;-89
2021/05/27 09:23:51;;;;;;;1.30;0.93;;;24.50;94.60;;;;;;4978974;28;20268;-91
2021/05/27 09:26:18;;;;;;;1.30;1.20;;;24.70;94.60;;;;;;5027758;28;20504;-93
2021/05/27 09:28:45;;;;;;;1.60;0.93;;;24.60;91.30;;;;;;4991413;28;20453;-91
2021/05/27 09:31:18;;;;;;;1.60;0.93;;;24.60;94.50;;;;;;4973301;28;21033;-90
2021/05/27 09:33:59;;;;;;;2.73;0.90;;;24.60;93.90;;;;;;4950722;28;20864;-92
2021/05/27 09:36:25;;;;;;;1.33;0.80;;;24.80;93.20;;;;;;4964519;28;20443;-93
2021/05/27 09:38:56;;;;;;;2.30;1.20;;;24.80;94.40;;;;;;4961301;28;20843;-84
2021/05/27 09:41:28;;;;;;;1.00;0.90;;;24.30;94.90;;;;;;4984457;28;20676;-90
2021/05/27 09:44:13;;;;;;;1.13;1.00;;;24.10;87.30;;;;;;5000356;28;20445;-84
2021/05/27 09:46:56;;;;;;;1.90;0.80;;;24.20;90.00;;;;;;4987670;28;21029;-88
2021/05/27 09:49:23;;;;;;;1.33;0.73;;;24.50;94.00;;;;;;4974029;28;20873;-83
2021/05/27 09:51:55;;;;;;;2.53;1.00;;;24.50;94.20;;;;;;4959398;28;20576;-88
2021/05/27 09:54:21;;;;;;;2.00;0.90;;;24.40;94.00;;;;;;4994685;28;20549;-83
2021/05/27 09:56:48;;;;;;;3.17;1.07;;;24.20;89.30;;;;;;4975687;28;20912;-91
2021/05/27 09:59:14;;;;;;;0.83;0.83;;;23.80;89.10;;;;;;4971396;28;20448;-88
2021/05/27 10:02:00;;;;;;;2.57;1.13;;;24.20;89.20;;;;;;4971763;28;20561;-90
2021/05/27 10:04:26;;;;;;;1.37;0.83;;;24.70;91.60;;;;;;4950614;28;20189;-91
2021/05/27 10:06:57;;;;;;;0.97;0.97;;;24.90;91.40;;;;;;4974507;28;20432;-85
2021/05/27 10:09:23;;;;;;;1.47;0.97;;;24.70;86.20;;;;;;4961000;28;20187;-94
2021/05/27 10:11:48;;;;;;;2.83;1.00;;;24.90;92.20;;;;;;4935949;29;20884;-94
2021/05/27 10:14:14;;;;;;;0.90;0.80;;;24.90;88.80;;;;;;4954196;28;20285;-83
2021/05/27 10:16:40;;;;;;;0.70;0.70;;;25.10;91.40;;;;;;4973560;28;20207;-84
2021/05/27 10:19:07;;;;;;;2.60;1.20;;;25.30;89.80;;;;;;4971300;28;21024;-86
2021/05/27 10:21:33;;;;;;;1.13;0.90;;;25.30;91.30;;;;;;4933337;29;20267;-84
2021/05/27 10:24:00;;;;;;;1.93;1.07;;;25.10;89.20;;;;;;4958607;28;20428;-84
2021/05/27 10:26:26;;;;;;;1.20;1.10;;;25.40;91.60;;;;;;4951833;28;20738;-84
2021/05/27 10:28:53;;;;;;;1.23;1.03;;;25.30;91.30;;;;;;4934436;28;21016;-84
2021/05/27 10:31:22;;;;;;;0.80;0.80;;;25.10;92.00;;;;;;4949663;28;20453;-90
2021/05/27 10:33:48;;;;;;;1.83;0.97;;;25.20;91.30;;;;;;4951862;28;20407;-90
2021/05/27 10:36:14;;;;;;;1.83;1.07;;;25.30;91.50;;;;;;4992680;28;20821;-90
2021/05/27 10:38:40;;;;;;;2.53;0.83;;;25.40;91.80;;;;;;5006026;28;20433;-84
2021/05/27 10:41:32;;;;;;;2.17;1.23;;;25.50;90.90;;;;;;4966859;28;20238;-85
2021/05/27 10:44:02;;;;;;;1.20;1.10;;;25.30;86.10;;;;;;4937968;28;20446;-90
2021/05/27 10:46:43;;;;;;;1.13;1.00;;;25.10;91.90;;;;;;4966944;28;20460;-84
2021/05/27 10:49:09;;;;;;;1.73;1.40;;;24.70;82.70;;;;;;4961173;28;20953;-84
2021/05/27 10:51:45;;;;;;;1.43;0.93;;;24.80;90.50;;;;;;4978240;28;20476;-83
2021/05/27 10:54:15;;;;;;;1.50;1.03;;;25.00;91.30;;;;;;5026739;28;20935;-84
2021/05/27 10:56:46;;;;;;;1.20;1.10;;;25.30;91.40;;;;;;4966271;28;20496;-84
2021/05/27 10:59:17;;;;;;;1.50;1.13;;;25.50;91.30;;;;;;4971139;28;20442;-89
2021/05/27 11:01:43;;;;;;;0.90;0.90;;;25.50;91.40;;;;;;5025794;28;20487;-83
2021/05/27 11:04:21;;;;;;;3.60;1.03;;;25.40;86.10;;;;;;4985955;28;20438;-86
2021/05/27 11:06:49;;;;;;;1.37;0.93;;;25.20;86.30;;;;;;4984534;28;20449;-88
2021/05/27 11:09:20;;;;;;;1.47;0.97;;;25.40;83.90;;;;;;5001091;28;20422;-84
2021/05/27 11:11:48;;;;;;;1.20;1.10;;;25.20;88.10;;;;;;5030132;28;20473;-89
2021/05/27 11:14:17;;;;;;;1.23;1.10;;;25.70;90.40;;;;;;5042420;28;20439;-83
2021/05/27 11:17:18;;;;;;;2.00;1.00;;;25.50;83.40;;;;;;5014888;28;20449;-84
2021/05/27 11:20:02;;;;;;;2.40;0.93;;;25.60;89.60;;;;;;5010379;28;20948;-87
2021/05/27 11:22:39;;;;;;;0.90;0.90;;;25.60;83.90;;;;;;4972550;28;20539;-86
2021/05/27 11:25:11;;;;;;;2.17;0.97;;;25.30;86.70;;;;;;5066206;28;20484;-84
2021/05/27 11:27:38;;;;;;;1.00;0.90;;;25.80;82.50;;;;;;4997308;28;20426;-90
2021/05/27 11:30:37;;;;;;;1.00;0.90;;;26.00;88.60;;;;;;4984653;28;20476;-84
2021/05/27 11:33:21;;;;;;;1.10;1.00;;;26.10;88.90;;;;;;4991407;28;20475;-88
2021/05/27 11:35:48;;;;;;;1.20;1.10;;;25.60;79.10;;;;;;4985505;28;20464;-84
2021/05/27 11:38:16;;;;;;;4.30;1.07;;;24.30;81.10;;;;;;5002934;28;20422;-85
2021/05/27 11:40:47;;;;;;;1.37;1.27;;;25.10;85.80;;;;;;4989006;28;20819;-83
2021/05/27 11:43:14;;;;;;;1.60;1.17;;;25.60;86.80;;;;;;5002492;28;20964;-84
2021/05/27 11:45:42;;;;;;;2.03;0.90;;;25.90;87.30;;;;;;4989978;28;20873;-82
2021/05/27 11:48:08;;;;;;;1.07;1.00;;;25.70;89.60;;;;;;4983307;28;20428;-89
2021/05/27 11:50:35;;;;;;;2.60;1.17;;;25.60;89.90;;;;;;4996077;28;20546;-91
2021/05/27 11:53:00;;;;;;;1.20;1.00;;;25.50;89.60;;;;;;4987259;28;20557;-92
2021/05/27 11:55:27;;;;;;;1.80;0.97;;;25.00;90.50;;;;;;4992387;28;20518;-90
2021/05/27 11:57:56;;;;;;;2.90;1.10;;;25.20;90.10;;;;;;4985006;28;20268;-83
2021/05/27 12:00:22;;;;;;;1.20;1.10;;;25.40;90.10;;;;;;5022647;28;20540;-83
2021/05/27 12:02:52;;;;;;;1.20;0.93;;;25.80;89.90;;;;;;4984041;28;20829;-94
2021/05/27 12:05:25;;;;;;;3.07;1.20;;;25.90;86.80;;;;;;5006308;28;20509;-93
2021/05/27 12:08:08;;;;;;;0.73;0.73;;;25.20;82.10;;;;;;5039443;28;20424;-92
2021/05/27 12:10:45;;;;;;;1.00;0.90;;;25.20;80.80;;;;;;5050020;28;20460;-86
2021/05/27 12:13:21;;;;;;;2.20;1.33;;;25.10;84.30;;;;;;4984009;28;20498;-91
2021/05/27 12:15:48;;;;;;;1.20;1.03;;;25.90;85.60;;;;;;4985993;28;20456;-83
2021/05/27 12:18:18;;;;;;;1.43;0.70;;;26.50;86.00;;;;;;4987693;28;20459;-84
2021/05/27 12:20:48;;;;;;;2.00;1.30;;;26.80;85.90;;;;;;4975399;28;20476;-84
2021/05/27 12:23:16;;;;;;;2.30;1.00;;;27.10;85.70;;;;;;5009902;28;20433;-90
2021/05/27 12:25:44;;;;;;;1.20;1.10;;;26.70;81.10;;;;;;4984696;28;20429;-84
2021/05/27 12:28:13;;;;;;;1.70;1.10;;;26.80;82.50;;;;;;5001366;28;20449;-85
2021/05/27 12:30:41;;;;;;;1.00;0.77;;;27.10;84.90;;;;;;5069574;28;20443;-85
2021/05/27 12:33:09;;;;;;;2.30;1.13;;;27.00;78.90;;;;;;4992288;28;20856;-85
2021/05/27 12:35:38;;;;;;;1.13;1.07;;;27.10;84.90;;;;;;5004184;28;20432;-85
2021/05/27 12:38:06;;;;;;;2.60;1.00;;;27.10;85.60;;;;;;5011846;28;20539;-84
2021/05/27 12:40:39;;;;;;;1.37;0.90;;;27.10;79.90;;;;;;5018267;28;20503;-89
2021/05/27 12:43:31;;;;;;;2.30;1.13;;;27.20;83.20;;;;;;5036651;28;20438;-89
2021/05/27 12:45:58;;;;;;;4.00;1.37;;;27.40;78.90;;;;;;5036883;28;20468;-89
2021/05/27 12:48:26;;;;;;;3.50;1.30;;;27.50;82.30;;;;;;5048713;28;20445;-89
2021/05/27 12:51:04;;;;;;;1.83;1.20;;;27.80;82.10;;;;;;5058605;28;21115;-85
2021/05/27 12:53:54;;;;;;;3.90;1.17;;;28.00;79.00;;;;;;5052461;28;20523;-84